Time;durP1;ratioP1;P1;durP2;ratioP2;P2;SDS_P1;SDS_P2;PMS_P1;PMS_P2;Temp;Humidity;BMP_temperature;BMP_pressure;BME280_temperature;BME280_humidity;BME280_pressure;Samples;Min_cycle;Max_cycle;Signal;HPM_P1;HPM_P2
2023/07/27 00:02:41;;;;;;;5.90;2.60;;;;;;;13.28;96.33;100251.59;5017791;57;1138805;-65
2023/07/27 00:07:47;;;;;;;1.87;1.77;;;;;;;13.21;97.05;100251.31;5037631;57;1138831;-66
2023/07/27 00:12:54;;;;;;;4.63;2.50;;;;;;;13.18;98.21;100257.39;4985770;57;1139021;-66
2023/07/27 00:17:59;;;;;;;3.63;3.20;;;;;;;13.17;99.05;100256.55;5017846;57;1138693;-64
2023/07/27 00:23:05;;;;;;;5.00;3.10;;;;;;;13.28;99.98;100241.81;5048943;57;1138761;-67
2023/07/27 00:28:10;;;;;;;4.45;2.55;;;;;;;13.40;100.00;100246.46;5021655;57;1138689;-65
2023/07/27 00:33:16;;;;;;;9.83;3.10;;;;;;;13.54;100.00;100243.34;5021259;57;1140922;-65
2023/07/27 00:38:22;;;;;;;6.47;2.70;;;;;;;13.67;100.00;100244.34;4965970;58;1140781;-68
2023/07/27 00:43:27;;;;;;;3.17;2.60;;;;;;;13.75;99.82;100241.78;4947069;58;1141096;-67
2023/07/27 00:48:34;;;;;;;3.23;2.93;;;;;;;13.77;99.02;100239.81;4948526;57;1138812;-64
2023/07/27 00:53:39;;;;;;;8.50;2.60;;;;;;;13.71;99.49;100243.91;4970662;57;1138549;-64
2023/07/27 00:58:46;;;;;;;3.83;3.03;;;;;;;13.60;99.95;100240.58;5008737;58;1138740;-66
2023/07/27 01:03:52;;;;;;;2.93;2.30;;;;;;;13.72;100.00;100238.95;5032243;56;1139044;-65
2023/07/27 01:09:01;;;;;;;4.03;2.53;;;;;;;13.77;100.00;100237.65;5032324;56;1140778;-65
2023/07/27 01:14:17;;;;;;;2.50;2.30;;;;;;;13.84;100.00;100235.60;5052808;56;1140703;-66
2023/07/27 01:19:52;;;;;;;4.17;3.30;;;;;;;13.96;100.00;100235.75;5032949;57;1141157;-66
2023/07/27 01:25:35;;;;;;;3.20;2.90;;;;;;;13.94;100.00;100227.08;5032584;56;1140999;-65
2023/07/27 01:30:49;;;;;;;3.00;2.80;;;;;;;13.92;100.00;100231.70;5115637;56;1141006;-65
2023/07/27 01:36:22;;;;;;;6.60;2.85;;;;;;;13.92;100.00;100226.38;5116435;56;1140918;-65
2023/07/27 01:41:31;;;;;;;3.10;2.60;;;;;;;13.82;100.00;100219.45;5136161;56;1141156;-64
2023/07/27 01:46:38;;;;;;;2.40;2.17;;;;;;;13.71;100.00;100221.33;5116101;56;1140999;-65
2023/07/27 01:51:44;;;;;;;3.50;3.03;;;;;;;13.66;100.00;100226.23;5116456;56;1140548;-68
2023/07/27 01:56:51;;;;;;;8.10;3.53;;;;;;;13.76;100.00;100225.34;5116208;56;1140974;-68
2023/07/27 02:01:57;;;;;;;9.27;3.17;;;;;;;13.79;100.00;100218.41;5136160;56;1140985;-66
2023/07/27 02:07:03;;;;;;;3.53;3.17;;;;;;;13.67;100.00;100214.62;5082608;56;1140977;-65
2023/07/27 02:12:12;;;;;;;3.57;2.47;;;;;;;13.48;100.00;100217.34;5116293;56;1140844;-67
2023/07/27 02:17:24;;;;;;;2.65;2.50;;;;;;;13.36;100.00;100217.17;5136090;56;1140956;-65
2023/07/27 02:22:31;;;;;;;60.80;28.10;;;;;;;13.39;100.00;100208.92;5116599;56;1140826;-65
2023/07/27 02:27:37;;;;;;;11.13;6.13;;;;;;;13.50;100.00;100214.05;5115510;56;1144884;-66
2023/07/27 02:32:43;;;;;;;3.93;3.00;;;;;;;13.50;100.00;100221.19;5135951;56;1143034;-67
2023/07/27 02:37:48;;;;;;;5.53;3.57;;;;;;;13.34;100.00;100228.42;5115964;56;1140901;-65
2023/07/27 02:42:54;;;;;;;6.13;2.70;;;;;;;13.29;100.00;100226.19;5083057;56;1140871;-67
2023/07/27 02:48:01;;;;;;;3.52;2.45;;;;;;;13.25;100.00;100223.50;5060818;56;1141138;-65
2023/07/27 02:53:07;;;;;;;5.80;2.73;;;;;;;13.09;100.00;100235.66;5080821;57;1148633;-67
2023/07/27 02:58:13;;;;;;;4.65;3.17;;;;;;;13.11;100.00;100233.20;5061234;56;1140875;-67
2023/07/27 03:03:19;;;;;;;3.02;2.65;;;;;;;13.06;100.00;100231.45;5028056;57;1140977;-64
2023/07/27 03:08:26;;;;;;;2.80;2.53;;;;;;;13.03;100.00;100237.88;5031812;57;1140998;-68
2023/07/27 03:13:33;;;;;;;3.10;2.80;;;;;;;12.93;100.00;100245.03;5061163;57;1140942;-66
2023/07/27 03:18:38;;;;;;;3.60;2.63;;;;;;;12.83;100.00;100248.16;5061216;57;1141372;-67
2023/07/27 03:23:44;;;;;;;3.77;2.03;;;;;;;12.77;100.00;100252.72;5081031;57;1140891;-65
2023/07/27 03:28:50;;;;;;;3.20;2.83;;;;;;;12.84;100.00;100249.84;5060729;57;1141043;-65
2023/07/27 03:33:56;;;;;;;4.23;2.27;;;;;;;12.87;100.00;100256.20;5060813;57;1141244;-66
2023/07/27 03:39:02;;;;;;;3.43;2.80;;;;;;;12.84;100.00;100245.85;5080712;56;1140962;-67
2023/07/27 03:44:11;;;;;;;5.07;1.97;;;;;;;12.93;100.00;100242.86;5092009;56;1140980;-66
2023/07/27 03:49:16;;;;;;;4.20;2.50;;;;;;;12.98;100.00;100244.62;5099524;56;1140944;-65
2023/07/27 03:54:22;;;;;;;3.17;2.58;;;;;;;13.09;100.00;100240.97;5136631;56;1141326;-67
2023/07/27 03:59:27;;;;;;;5.33;3.00;;;;;;;13.12;100.00;100242.85;5082495;56;1140884;-67
2023/07/27 04:04:33;;;;;;;2.80;2.60;;;;;;;13.19;100.00;100247.96;5116195;56;1140824;-66
2023/07/27 04:09:39;;;;;;;3.63;2.33;;;;;;;13.03;100.00;100245.84;5136390;56;1141129;-67
2023/07/27 04:14:44;;;;;;;7.97;2.77;;;;;;;12.97;100.00;100249.58;5116576;56;1140821;-66
2023/07/27 04:19:50;;;;;;;3.57;2.50;;;;;;;12.96;100.00;100253.20;5116317;56;1141115;-65
2023/07/27 04:24:56;;;;;;;2.63;2.37;;;;;;;12.90;100.00;100246.63;5116492;56;1141136;-66
2023/07/27 04:30:01;;;;;;;4.87;2.53;;;;;;;12.89;100.00;100238.31;5136285;56;1141084;-67
2023/07/27 04:35:07;;;;;;;6.37;2.80;;;;;;;12.89;100.00;100238.31;5116221;56;1141044;-66
2023/07/27 04:40:14;;;;;;;5.17;2.40;;;;;;;12.91;100.00;100250.13;5116180;56;1141088;-65
2023/07/27 04:45:20;;;;;;;2.50;2.33;;;;;;;12.87;100.00;100244.73;5136535;56;1141015;-67
2023/07/27 04:50:26;;;;;;;5.03;2.22;;;;;;;12.97;100.00;100242.94;5116023;56;1141047;-65
2023/07/27 04:55:31;;;;;;;5.43;2.17;;;;;;;12.95;100.00;100244.89;5082439;56;1140921;-67
2023/07/27 05:00:37;;;;;;;5.30;2.07;;;;;;;12.94;100.00;100248.52;5136111;56;1141071;-65
2023/07/27 05:05:45;;;;;;;4.30;2.10;;;;;;;12.93;100.00;100246.36;5111348;55;1140870;-66
2023/07/27 05:10:51;;;;;;;13.97;3.40;;;;;;;13.01;100.00;100249.12;5195204;55;1140609;-66
2023/07/27 05:15:56;;;;;;;3.17;2.60;;;;;;;13.06;100.00;100241.23;5112055;56;1143113;-65
2023/07/27 05:21:02;;;;;;;2.97;2.67;;;;;;;13.08;100.00;100252.56;5069693;56;1140769;-68
2023/07/27 05:26:07;;;;;;;3.73;2.57;;;;;;;13.08;100.00;100243.27;5049762;56;1140749;-68
2023/07/27 05:31:13;;;;;;;2.97;2.17;;;;;;;13.12;100.00;100248.66;5133651;56;1141292;-67
2023/07/27 05:36:19;;;;;;;4.15;2.12;;;;;;;13.27;100.00;100253.91;5130223;56;1140976;-67
2023/07/27 05:41:25;;;;;;;3.55;2.72;;;;;;;13.37;100.00;100251.56;5064246;56;1141014;-66
2023/07/27 05:46:31;;;;;;;3.80;2.50;;;;;;;13.48;100.00;100247.05;5105778;56;1140846;-68
2023/07/27 05:51:36;;;;;;;5.73;2.23;;;;;;;13.69;100.00;100252.52;5006593;56;1140719;-65
2023/07/27 05:56:42;;;;;;;4.40;2.80;;;;;;;13.92;100.00;100244.16;4980728;56;1141143;-65
2023/07/27 06:01:47;;;;;;;2.73;2.47;;;;;;;14.07;100.00;100247.51;5048209;56;1141023;-65
2023/07/27 06:06:54;;;;;;;7.10;2.40;;;;;;;14.23;100.00;100249.52;5046536;56;1141028;-66
2023/07/27 06:12:02;;;;;;;4.43;2.47;;;;;;;14.51;100.00;100254.37;5045648;56;1140990;-67
2023/07/27 06:17:08;;;;;;;8.27;2.63;;;;;;;14.73;100.00;100260.56;5026347;56;1140777;-65
2023/07/27 06:22:13;;;;;;;10.03;2.50;;;;;;;14.76;100.00;100266.09;5032649;56;1140859;-67
2023/07/27 06:27:19;;;;;;;4.67;2.80;;;;;;;14.93;100.00;100257.27;5038752;56;1143191;-65
2023/07/27 06:32:25;;;;;;;5.53;1.82;;;;;;;15.13;100.00;100258.73;5010678;56;1141031;-67
2023/07/27 06:37:30;;;;;;;5.67;2.57;;;;;;;15.25;100.00;100255.36;5014322;56;1140872;-67
2023/07/27 06:42:37;;;;;;;2.80;2.60;;;;;;;15.42;100.00;100246.98;5029912;56;1140919;-65
2023/07/27 06:47:42;;;;;;;3.93;2.30;;;;;;;15.56;100.00;100238.44;4994726;56;1140845;-67
2023/07/27 06:52:48;;;;;;;2.27;1.97;;;;;;;15.75;100.00;100235.52;4950679;57;1140810;-66
2023/07/27 06:57:56;;;;;;;2.07;1.87;;;;;;;15.90;100.00;100237.09;4977316;56;1141228;-65
2023/07/27 07:03:01;;;;;;;4.37;3.10;;;;;;;16.03;100.00;100240.67;5001522;56;1141107;-66
2023/07/27 07:08:07;;;;;;;1.93;1.83;;;;;;;16.24;100.00;100229.55;4975778;56;1141191;-67
2023/07/27 07:13:12;;;;;;;2.20;2.00;;;;;;;16.46;100.00;100234.29;4995166;57;1140714;-67
2023/07/27 07:18:18;;;;;;;2.05;1.70;;;;;;;16.61;100.00;100237.16;5056313;56;1140725;-65
2023/07/27 07:23:24;;;;;;;2.58;2.30;;;;;;;16.78;100.00;100242.38;5025587;57;1140890;-67
2023/07/27 07:28:29;;;;;;;3.75;2.62;;;;;;;16.90;100.00;100228.19;4984514;56;1140947;-67
2023/07/27 07:33:35;;;;;;;3.07;2.20;;;;;;;17.19;100.00;100229.85;4973812;57;1140886;-66
2023/07/27 07:38:40;;;;;;;3.00;2.37;;;;;;;17.19;100.00;100229.85;5025026;56;1140876;-67
2023/07/27 07:43:46;;;;;;;4.20;2.30;;;;;;;17.37;100.00;100232.34;5004024;56;1141065;-65
2023/07/27 07:48:52;;;;;;;2.77;2.27;;;;;;;17.54;100.00;100227.29;4987620;57;1140989;-68
2023/07/27 07:53:57;;;;;;;5.50;1.73;;;;;;;17.78;97.90;100225.06;5031391;57;1140926;-67
2023/07/27 07:59:03;;;;;;;3.92;1.60;;;;;;;17.88;94.08;100231.03;5017402;56;1138819;-66
2023/07/27 08:04:09;;;;;;;2.85;1.90;;;;;;;17.95;93.38;100225.84;5023124;57;1138859;-68
2023/07/27 08:09:15;;;;;;;1.50;1.40;;;;;;;18.06;89.35;100228.13;5069064;56;1138845;-66
2023/07/27 08:14:21;;;;;;;2.20;1.42;;;;;;;18.15;91.10;100216.89;5027506;56;1138790;-67
2023/07/27 08:19:27;;;;;;;1.80;1.23;;;;;;;18.39;93.07;100215.91;5086257;56;1138885;-67
2023/07/27 08:24:32;;;;;;;1.52;1.40;;;;;;;18.66;86.68;100215.92;5068508;56;1139111;-64
2023/07/27 08:29:38;;;;;;;2.25;1.10;;;;;;;18.57;84.61;100215.12;4982004;56;1139119;-68
2023/07/27 08:34:44;;;;;;;1.20;1.10;;;;;;;18.58;83.46;100210.97;5007887;56;1138682;-68
2023/07/27 08:39:50;;;;;;;1.05;1.02;;;;;;;18.61;80.58;100201.24;4984649;56;1138855;-67
2023/07/27 08:44:56;;;;;;;1.00;1.00;;;;;;;18.85;82.63;100197.52;5070879;56;1138676;-67
2023/07/27 08:50:03;;;;;;;4.12;1.50;;;;;;;18.91;77.29;100194.14;5169317;55;1138735;-66
2023/07/27 08:55:09;;;;;;;3.55;2.20;;;;;;;18.98;82.19;100194.23;5183461;55;1138784;-65
2023/07/27 09:00:16;;;;;;;5.92;2.42;;;;;;;19.18;78.64;100187.85;5017378;56;1139012;-66
2023/07/27 09:05:24;;;;;;;2.13;1.60;;;;;;;19.45;78.27;100183.71;5026619;57;1138792;-67
2023/07/27 09:10:30;;;;;;;7.65;1.72;;;;;;;19.58;74.78;100183.42;5066398;56;1138837;-64
2023/07/27 09:15:37;;;;;;;5.92;2.37;;;;;;;19.62;74.76;100180.70;5018697;57;1139039;-65
2023/07/27 09:20:44;;;;;;;1.32;1.00;;;;;;;19.73;73.34;100182.58;5025113;56;1138935;-65
2023/07/27 09:25:56;;;;;;;1.27;1.17;;;;;;;19.80;68.28;100183.00;5030596;57;1138943;-64
2023/07/27 09:31:03;;;;;;;3.20;1.57;;;;;;;19.76;70.29;100174.99;4999549;56;1138813;-64
2023/07/27 09:36:12;;;;;;;1.03;1.03;;;;;;;19.95;70.95;100169.56;4999419;56;1138805;-65
2023/07/27 09:41:18;;;;;;;0.90;0.90;;;;;;;20.17;70.97;100169.91;5065358;56;1138909;-65
2023/07/27 09:46:24;;;;;;;2.27;0.93;;;;;;;20.21;68.72;100174.39;4982528;56;1138798;-64
2023/07/27 09:51:31;;;;;;;2.00;0.83;;;;;;;20.05;69.63;100153.97;5082314;56;1138725;-64
2023/07/27 09:56:37;;;;;;;1.22;1.10;;;;;;;20.05;69.63;100153.97;5103056;56;1138761;-68
2023/07/27 10:01:42;;;;;;;0.96;0.96;;;;;;;20.11;67.67;100152.39;5036195;57;1138925;-67
2023/07/27 10:06:48;;;;;;;1.80;0.93;;;;;;;20.35;69.33;100154.71;5038643;56;1138894;-65
2023/07/27 10:12:04;;;;;;;0.70;0.70;;;;;;;20.68;65.75;100138.94;5042223;57;1138859;-66
2023/07/27 10:17:12;;;;;;;1.72;1.45;;;;;;;21.01;64.88;100137.36;5000127;57;1139351;-65
2023/07/27 10:22:20;;;;;;;0.95;0.95;;;;;;;21.30;62.31;100135.50;5030461;57;1138603;-65
2023/07/27 10:27:26;;;;;;;1.40;1.30;;;;;;;21.46;58.85;100125.77;5010744;56;1138802;-65
2023/07/27 10:32:31;;;;;;;2.58;1.87;;;;;;;21.56;62.03;100124.05;4981298;56;1138721;-66
2023/07/27 10:37:56;;;;;;;1.07;0.90;;;;;;;21.68;57.05;100133.23;4957136;56;1138733;-65
2023/07/27 10:43:01;;;;;;;2.30;1.35;;;;;;;21.65;58.50;100124.20;4931827;57;1138715;-63
2023/07/27 10:48:11;;;;;;;3.80;0.93;;;;;;;21.85;56.98;100122.92;5022986;56;1139006;-64
2023/07/27 10:53:17;;;;;;;1.98;1.00;;;;;;;21.88;54.72;100121.17;5025395;57;1180754;-65
2023/07/27 10:58:24;;;;;;;1.70;1.00;;;;;;;21.96;53.31;100125.05;5047811;56;1138625;-65
2023/07/27 11:03:30;;;;;;;1.35;1.10;;;;;;;21.84;53.31;100118.08;4975571;57;1138842;-66
2023/07/27 11:08:40;;;;;;;2.62;1.05;;;;;;;21.86;55.46;100120.55;4996335;56;1138924;-65
2023/07/27 11:13:46;;;;;;;1.75;0.70;;;;;;;21.79;51.74;100113.80;5026575;57;1138784;-64
2023/07/27 11:18:52;;;;;;;0.90;0.90;;;;;;;21.88;53.35;100108.55;5026931;57;1139118;-65
2023/07/27 11:23:58;;;;;;;0.93;0.80;;;;;;;21.99;54.38;100096.38;5026765;57;1139002;-64
2023/07/27 11:29:04;;;;;;;2.35;1.77;;;;;;;21.96;53.19;100085.48;4979626;57;1139256;-65
2023/07/27 11:34:09;;;;;;;1.45;1.35;;;;;;;22.12;52.96;100084.83;4945483;58;1138863;-65
2023/07/27 11:39:16;;;;;;;0.90;0.90;;;;;;;22.21;54.03;100082.24;4965308;57;1138854;-67
2023/07/27 11:44:24;;;;;;;3.33;1.00;;;;;;;22.14;53.74;100076.03;4983084;56;1138767;-64
2023/07/27 11:49:30;;;;;;;1.27;1.17;;;;;;;;;;4945490;58;1138898;-65
2023/07/27 11:54:44;;;;;;;3.25;1.85;;;;;;;22.03;55.58;100059.94;4982130;58;817820;-64
2023/07/27 12:00:18;;;;;;;1.57;0.85;;;;;;;22.25;50.50;100069.52;4992236;57;1136797;-64
2023/07/27 12:05:21;;;;;;;1.20;1.20;;;;;;;21.99;51.56;100058.19;5029453;57;1223561;-65
2023/07/27 12:10:26;;;;;;;2.87;1.37;;;;;;;;;;5098823;56;1138776;-66
2023/07/27 12:15:37;;;;;;;0.80;0.80;;;;;;;22.16;54.83;100057.26;5168401;56;817797;-65
2023/07/27 12:20:43;;;;;;;2.62;1.27;;;;;;;22.26;53.69;100051.48;5035835;56;1136793;-65
2023/07/27 12:25:50;;;;;;;1.35;1.25;;;;;;;22.21;53.75;100042.66;5046109;56;1138585;-65
2023/07/27 12:30:55;;;;;;;1.87;1.37;;;;;;;22.19;54.33;100045.25;5086951;56;1138770;-66
2023/07/27 12:36:01;;;;;;;1.35;1.27;;;;;;;22.29;53.67;100034.92;5079335;56;1138983;-66
2023/07/27 12:41:07;;;;;;;2.30;1.45;;;;;;;22.39;54.20;100024.55;5043481;55;1138591;-65
2023/07/27 12:46:13;;;;;;;1.42;1.40;;;;;;;22.63;52.21;100017.67;5106650;56;1138917;-65
2023/07/27 12:51:19;;;;;;;1.85;1.00;;;;;;;22.78;51.88;100014.25;5012930;56;1138852;-65
2023/07/27 12:56:25;;;;;;;2.17;1.42;;;;;;;22.92;51.40;100004.27;4992054;57;1138915;-65
2023/07/27 13:01:31;;;;;;;1.07;1.07;;;;;;;23.09;49.57;100006.81;5002874;57;1138792;-65
2023/07/27 13:06:36;;;;;;;1.45;1.42;;;;;;;23.05;50.80;100004.25;4981689;56;1139011;-65
2023/07/27 13:11:42;;;;;;;1.47;1.22;;;;;;;23.11;49.15;100001.52;4934921;56;1138658;-66
2023/07/27 13:16:47;;;;;;;0.85;0.85;;;;;;;22.98;49.00;100002.08;4933182;57;1139256;-67
2023/07/27 13:21:53;;;;;;;1.42;1.35;;;;;;;22.92;47.62;99994.30;4952097;56;1138830;-65
2023/07/27 13:26:59;;;;;;;1.22;1.20;;;;;;;22.88;49.50;99988.22;4966475;57;1136811;-65
2023/07/27 13:32:05;;;;;;;2.87;1.20;;;;;;;22.84;49.31;99985.63;4940489;56;1136670;-65
2023/07/27 13:37:10;;;;;;;1.47;1.37;;;;;;;22.77;49.44;99982.42;4942601;56;1136875;-65
2023/07/27 13:42:21;;;;;;;2.76;1.56;;;;;;;22.77;48.98;99979.72;4928513;57;1136753;-66
2023/07/27 13:47:26;;;;;;;1.44;1.34;;;;;;;22.77;47.75;99972.98;4969971;56;1136703;-65
2023/07/27 13:52:31;;;;;;;1.32;1.30;;;;;;;22.75;49.12;99973.71;4957096;57;1136670;-64
2023/07/27 13:57:37;;;;;;;3.62;1.57;;;;;;;22.62;50.35;99967.49;4998417;58;1136809;-65
2023/07/27 14:02:43;;;;;;;1.20;1.20;;;;;;;22.58;50.67;99956.84;4955257;57;1136771;-65
2023/07/27 14:07:49;;;;;;;2.45;1.40;;;;;;;22.49;50.09;99957.56;4972511;56;1136729;-65
2023/07/27 14:12:54;;;;;;;1.60;1.42;;;;;;;22.44;50.50;99954.17;5060708;56;1136952;-64
2023/07/27 14:18:02;;;;;;;3.45;1.90;;;;;;;22.49;49.37;99949.48;5084558;55;1136615;-65
2023/07/27 14:23:07;;;;;;;1.62;1.52;;;;;;;22.56;51.03;99946.27;4957135;57;1136887;-66
2023/07/27 14:28:13;;;;;;;1.57;1.40;;;;;;;22.60;51.85;99942.13;5081070;56;1136505;-66
2023/07/27 14:33:18;;;;;;;6.45;1.98;;;;;;;22.54;50.10;99946.16;5090659;57;1137105;-67
2023/07/27 14:38:24;;;;;;;2.47;1.65;;;;;;;22.52;51.08;99944.20;4991826;58;1136936;-67
2023/07/27 14:43:29;;;;;;;1.72;1.62;;;;;;;22.43;51.10;99936.34;4893673;58;1136942;-67
2023/07/27 14:48:35;;;;;;;6.28;2.10;;;;;;;22.30;50.45;99928.29;4853295;59;1136885;-67
2023/07/27 14:53:41;;;;;;;2.25;2.05;;;;;;;22.19;50.90;99931.59;4837439;59;1136859;-65
2023/07/27 14:58:46;;;;;;;2.60;2.40;;;;;;;22.10;51.70;99930.16;4851272;58;1136896;-68
2023/07/27 15:03:52;;;;;;;1.85;1.72;;;;;;;22.05;51.05;99929.95;4810224;59;1136995;-66
2023/07/27 15:09:00;;;;;;;2.60;2.40;;;;;;;22.03;51.91;99920.73;4925951;57;1136660;-65
2023/07/27 15:14:06;;;;;;;5.58;2.22;;;;;;;22.08;52.29;99917.42;4986753;56;1136728;-65
2023/07/27 15:19:11;;;;;;;4.85;2.20;;;;;;;22.12;52.61;99917.32;5109864;57;1136608;-66
2023/07/27 15:24:18;;;;;;;2.52;2.22;;;;;;;22.09;51.90;99911.83;5086169;57;1136767;-66
2023/07/27 15:29:24;;;;;;;2.62;2.20;;;;;;;22.02;51.15;99909.64;5094383;57;1137063;-67
2023/07/27 15:34:29;;;;;;;6.17;2.37;;;;;;;22.06;52.86;99911.41;5079320;57;1136911;-67
2023/07/27 15:39:35;;;;;;;2.52;2.30;;;;;;;22.07;52.53;99906.34;4979055;57;1136800;-63
2023/07/27 15:44:40;;;;;;;4.20;2.08;;;;;;;21.99;53.18;99907.39;4933854;57;1136724;-63
2023/07/27 15:49:46;;;;;;;2.20;1.98;;;;;;;21.97;54.01;99910.77;4968358;57;1136694;-65
2023/07/27 15:54:52;;;;;;;3.42;2.80;;;;;;;21.95;52.10;99907.97;4996134;57;1136319;-66
2023/07/27 16:00:00;;;;;;;2.83;2.62;;;;;;;21.94;52.77;99895.03;4992769;57;1136693;-64
2023/07/27 16:05:11;;;;;;;2.98;2.33;;;;;;;21.97;53.56;99897.83;4995224;57;1136831;-65
2023/07/27 16:10:15;;;;;;;3.40;2.20;;;;;;;22.00;53.91;99879.91;4950043;57;1136618;-65
2023/07/27 16:15:21;;;;;;;5.42;4.50;;;;;;;21.99;53.95;99879.60;4918614;57;1136927;-64
2023/07/27 16:20:27;;;;;;;9.68;5.10;;;;;;;22.05;54.16;99873.39;4964287;57;1136813;-65
2023/07/27 16:25:32;;;;;;;5.00;3.70;;;;;;;22.10;54.43;99869.56;4998234;57;1136685;-65
2023/07/27 16:30:42;;;;;;;3.20;2.50;;;;;;;22.10;54.34;99866.88;4996104;57;1136995;-64
2023/07/27 16:35:48;;;;;;;2.42;2.12;;;;;;;22.06;54.71;99865.11;4995781;57;1136825;-65
2023/07/27 16:40:54;;;;;;;3.10;2.27;;;;;;;21.96;54.94;99870.59;5001611;57;1136753;-66
2023/07/27 16:46:00;;;;;;;14.40;3.05;;;;;;;21.88;55.63;99878.86;5005565;57;1136742;-65
2023/07/27 16:51:09;;;;;;;7.30;3.10;;;;;;;21.78;56.93;99877.94;4985217;57;1139123;-65
2023/07/27 16:56:14;;;;;;;3.27;2.83;;;;;;;21.63;57.38;99887.56;4986243;57;1136701;-65
2023/07/27 17:01:21;;;;;;;3.77;3.17;;;;;;;21.50;57.76;99903.70;5005869;57;1136779;-65
2023/07/27 17:06:27;;;;;;;9.65;2.98;;;;;;;21.13;61.49;99919.81;4921921;56;1136624;-65
2023/07/27 17:11:32;;;;;;;3.70;3.37;;;;;;;20.61;65.39;99929.83;4956761;56;1136785;-64
2023/07/27 17:16:38;;;;;;;3.72;3.02;;;;;;;20.15;71.56;99920.09;5037847;56;1137012;-64
2023/07/27 17:21:43;;;;;;;3.62;3.33;;;;;;;19.78;73.36;99921.22;4991618;56;1137047;-64
2023/07/27 17:26:49;;;;;;;11.38;3.67;;;;;;;19.56;74.16;99925.24;4984112;56;1137053;-64
2023/07/27 17:31:55;;;;;;;6.50;4.35;;;;;;;19.49;75.08;99928.38;5018960;56;1139248;-65
2023/07/27 17:37:00;;;;;;;4.60;3.43;;;;;;;19.52;75.83;99928.52;4979945;56;1136871;-65
2023/07/27 17:42:06;;;;;;;9.70;3.25;;;;;;;19.62;76.00;99916.95;4998467;56;1136823;-65
2023/07/27 17:47:12;;;;;;;7.55;5.62;;;;;;;19.74;76.78;99910.04;5018015;56;1136657;-65
2023/07/27 17:52:17;;;;;;;7.25;4.03;;;;;;;19.74;76.32;99895.28;5009402;56;1136716;-65
2023/07/27 17:57:23;;;;;;;8.45;4.55;;;;;;;19.80;78.07;99885.64;4951050;56;1137246;-64
2023/07/27 18:02:29;;;;;;;2.72;2.52;;;;;;;19.88;78.55;99887.66;4985341;56;1136622;-64
2023/07/27 18:07:34;;;;;;;6.28;5.65;;;;;;;19.94;78.21;99886.89;5076115;57;1137004;-65
2023/07/27 18:12:40;;;;;;;5.05;3.90;;;;;;;19.98;80.74;99880.11;5060721;56;1136966;-64
2023/07/27 18:17:46;;;;;;;5.90;3.22;;;;;;;19.90;81.35;99876.22;5072785;56;1137144;-65
2023/07/27 18:22:56;;;;;;;5.10;3.10;;;;;;;19.81;81.82;99868.00;4957984;57;1136941;-65
2023/07/27 18:28:01;;;;;;;9.00;3.17;;;;;;;19.58;83.91;99866.87;4972999;57;1136793;-65
2023/07/27 18:33:07;;;;;;;6.83;5.35;;;;;;;19.58;83.91;99866.87;5011715;57;1136730;-65
2023/07/27 18:38:13;;;;;;;12.88;7.75;;;;;;;19.49;84.66;99881.45;4956240;58;1136708;-64
2023/07/27 18:43:18;;;;;;;16.05;9.60;;;;;;;19.31;86.10;99887.22;4987417;56;1138643;-65
2023/07/27 18:48:24;;;;;;;10.98;8.08;;;;;;;19.21;87.54;99888.56;5039317;57;1138887;-64
2023/07/27 18:53:30;;;;;;;12.58;7.30;;;;;;;19.08;88.00;99883.06;5059119;57;1138894;-65
2023/07/27 18:58:35;;;;;;;12.18;9.13;;;;;;;19.07;89.16;99876.87;5019101;57;1138964;-64
2023/07/27 19:03:41;;;;;;;5.97;5.42;;;;;;;19.12;90.54;99868.23;5088187;56;1138632;-64
2023/07/27 19:08:46;;;;;;;8.18;4.30;;;;;;;19.17;91.75;99864.48;5109705;56;1136612;-65
2023/07/27 19:13:52;;;;;;;6.42;4.54;;;;;;;19.17;92.29;99874.70;5016069;56;1137171;-65
2023/07/27 19:18:58;;;;;;;5.97;4.60;;;;;;;19.03;93.27;99882.27;4983059;56;1136944;-66
2023/07/27 19:24:05;;;;;;;7.63;5.57;;;;;;;19.12;94.62;99878.95;5052314;57;1136827;-66
2023/07/27 19:29:11;;;;;;;185.10;108.20;;;;;;;19.17;93.54;99867.99;5067690;56;1136890;-64
2023/07/27 19:34:17;;;;;;;11.95;5.92;;;;;;;19.23;93.70;99867.76;5104462;56;1144998;-66
2023/07/27 19:39:23;;;;;;;7.10;5.22;;;;;;;19.21;94.23;99865.27;5091317;56;1138983;-65
2023/07/27 19:44:29;;;;;;;6.53;4.33;;;;;;;19.20;94.03;99854.22;5081914;56;1136741;-65
2023/07/27 19:49:35;;;;;;;5.40;4.53;;;;;;;19.15;93.90;99854.45;5075344;56;1136985;-65
2023/07/27 19:54:40;;;;;;;6.00;5.40;;;;;;;19.07;94.46;99848.72;5075347;56;1139495;-66
2023/07/27 19:59:46;;;;;;;7.87;4.37;;;;;;;19.02;94.37;99843.59;5068695;56;1136861;-66
2023/07/27 20:04:53;;;;;;;6.33;3.80;;;;;;;18.99;94.63;99838.11;5066223;56;1136664;-64
2023/07/27 20:09:59;;;;;;;5.27;3.83;;;;;;;19.03;95.09;99842.08;5097888;56;1136717;-66
2023/07/27 20:15:06;;;;;;;5.17;4.40;;;;;;;18.98;94.51;99839.13;5051471;56;1136889;-65
2023/07/27 20:20:12;;;;;;;5.60;4.86;;;;;;;18.93;94.23;99833.52;5024426;57;1136657;-65
2023/07/27 20:25:17;;;;;;;3.95;3.55;;;;;;;18.82;94.52;99824.11;5034973;56;1136704;-65
2023/07/27 20:30:23;;;;;;;9.50;3.92;;;;;;;18.78;95.18;99820.67;5117050;56;1136754;-64
2023/07/27 20:35:29;;;;;;;3.65;3.30;;;;;;;18.69;94.92;99818.59;5136730;56;1136743;-65
2023/07/27 20:40:34;;;;;;;8.68;3.47;;;;;;;18.71;94.63;99817.08;5116369;56;1136845;-64
2023/07/27 20:45:40;;;;;;;4.33;3.90;;;;;;;18.74;94.78;99822.89;5116811;56;1137275;-65
2023/07/27 20:50:45;;;;;;;5.08;3.92;;;;;;;18.79;95.04;99811.63;5078091;56;1137080;-64
2023/07/27 20:55:51;;;;;;;6.58;4.47;;;;;;;18.80;94.49;99811.41;5049054;56;1137115;-64
2023/07/27 21:01:00;;;;;;;6.40;5.55;;;;;;;18.80;94.09;99809.23;5116756;56;1136858;-64
2023/07/27 21:06:07;;;;;;;6.37;4.15;;;;;;;18.78;94.01;99793.38;5136520;56;1136531;-65
2023/07/27 21:11:13;;;;;;;3.90;3.50;;;;;;;18.69;93.15;99788.30;5094642;56;1136847;-65
2023/07/27 21:16:19;;;;;;;4.42;3.70;;;;;;;18.62;93.03;99780.21;5032179;56;1137011;-65
2023/07/27 21:21:24;;;;;;;10.20;3.25;;;;;;;18.58;93.94;99786.92;5032634;56;1136969;-65
2023/07/27 21:26:30;;;;;;;5.25;3.50;;;;;;;18.56;94.53;99775.06;5078976;56;1138945;-64
2023/07/27 21:31:37;;;;;;;3.87;3.40;;;;;;;18.54;94.12;99776.27;5103726;56;1136836;-66
2023/07/27 21:36:43;;;;;;;9.80;3.20;;;;;;;18.57;94.20;99777.23;5068383;56;1136724;-65
2023/07/27 21:41:48;;;;;;;3.67;3.33;;;;;;;18.58;93.67;99779.75;5136495;56;1136510;-65
2023/07/27 21:46:54;;;;;;;3.98;3.50;;;;;;;18.55;93.13;99777.92;5062657;56;1136559;-66
2023/07/27 21:52:00;;;;;;;4.05;3.52;;;;;;;18.56;94.08;99768.88;5032636;57;1136978;-64
2023/07/27 21:57:05;;;;;;;7.65;3.52;;;;;;;18.55;94.23;99769.38;5052280;56;1136675;-63
2023/07/27 22:02:11;;;;;;;4.12;3.70;;;;;;;18.50;94.39;99755.72;5032483;56;1136842;-65
2023/07/27 22:07:16;;;;;;;4.45;3.58;;;;;;;18.49;94.37;99761.25;5042920;56;1136978;-63
2023/07/27 22:12:22;;;;;;;3.90;3.52;;;;;;;18.51;94.66;99754.70;5084538;56;1136712;-67
2023/07/27 22:17:28;;;;;;;6.55;4.10;;;;;;;18.44;93.90;99743.10;5133422;56;1136492;-65
2023/07/27 22:22:33;;;;;;;4.47;4.05;;;;;;;18.40;94.88;99737.79;4986091;57;1136832;-63
2023/07/27 22:27:39;;;;;;;6.23;3.70;;;;;;;18.35;94.90;99737.52;4986494;57;1136865;-65
2023/07/27 22:32:45;;;;;;;5.65;4.05;;;;;;;18.24;94.36;99732.66;5023771;57;1136790;-65
2023/07/27 22:37:51;;;;;;;4.45;4.08;;;;;;;18.09;94.69;99733.19;5008512;57;1154445;-64
2023/07/27 22:42:56;;;;;;;4.54;3.96;;;;;;;17.96;95.16;99734.36;4947792;57;1136862;-63
2023/07/27 22:48:02;;;;;;;7.20;3.93;;;;;;;17.84;96.13;99732.66;4925618;58;1136728;-64
2023/07/27 22:53:08;;;;;;;6.60;4.23;;;;;;;17.82;97.05;99727.49;4906680;58;1136821;-63
2023/07/27 22:58:14;;;;;;;6.50;4.30;;;;;;;17.78;97.17;99722.18;4959019;57;1137189;-64
2023/07/27 23:03:20;;;;;;;4.35;3.98;;;;;;;17.75;97.50;99726.55;5005619;57;1137083;-66
2023/07/27 23:08:27;;;;;;;4.28;3.60;;;;;;;17.76;97.67;99704.15;4986318;57;1136797;-65
2023/07/27 23:13:34;;;;;;;6.77;3.77;;;;;;;17.81;97.79;99697.75;4929694;57;1137103;-63
2023/07/27 23:18:40;;;;;;;5.05;3.50;;;;;;;17.86;98.34;99690.00;4926003;58;1137093;-64